sensor_id;sensor_type;location;lat;lon;timestamp;pressure;altitude;pressure_sealevel;temperature;humidity
68433;BME280;55412;51.350;17.056;2024-01-06T00:01:14;99265.34;;;1.17;82.92
68433;BME280;55412;51.350;17.056;2024-01-06T00:03:40;99277.34;;;1.20;83.28
68433;BME280;55412;51.350;17.056;2024-01-06T00:06:06;99273.09;;;1.19;82.81
68433;BME280;55412;51.350;17.056;2024-01-06T00:08:32;99275.56;;;1.17;83.25
68433;BME280;55412;51.350;17.056;2024-01-06T00:10:57;99271.31;;;1.16;83.21
68433;BME280;55412;51.350;17.056;2024-01-06T00:13:23;99265.22;;;1.09;82.90
68433;BME280;55412;51.350;17.056;2024-01-06T00:15:49;99269.47;;;1.07;83.03
68433;BME280;55412;51.350;17.056;2024-01-06T00:18:15;99267.69;;;1.03;83.11
68433;BME280;55412;51.350;17.056;2024-01-06T00:20:41;99266.75;;;0.98;82.89
68433;BME280;55412;51.350;17.056;2024-01-06T00:23:06;99282.91;;;0.97;83.02
68433;BME280;55412;51.350;17.056;2024-01-06T00:25:32;99279.44;;;0.95;82.71
68433;BME280;55412;51.350;17.056;2024-01-06T00:27:59;99281.09;;;0.93;82.95
68433;BME280;55412;51.350;17.056;2024-01-06T00:30:25;99277.59;;;0.88;82.99
68433;BME280;55412;51.350;17.056;2024-01-06T00:32:50;99285.34;;;0.91;82.84
68433;BME280;55412;51.350;17.056;2024-01-06T00:35:16;99285.31;;;0.90;82.83
68433;BME280;55412;51.350;17.056;2024-01-06T00:37:42;99293.84;;;0.90;83.64
68433;BME280;55412;51.350;17.056;2024-01-06T00:40:08;99292.91;;;0.88;83.04
68433;BME280;55412;51.350;17.056;2024-01-06T00:42:34;99293.75;;;0.86;83.00
68433;BME280;55412;51.350;17.056;2024-01-06T00:45:00;99296.38;;;0.89;83.39
68433;BME280;55412;51.350;17.056;2024-01-06T00:47:25;99293.75;;;0.87;83.36
68433;BME280;55412;51.350;17.056;2024-01-06T00:49:52;99299.69;;;0.86;83.11
68433;BME280;55412;51.350;17.056;2024-01-06T00:52:18;99307.38;;;0.88;83.39
68433;BME280;55412;51.350;17.056;2024-01-06T00:54:44;99306.59;;;0.89;83.76
68433;BME280;55412;51.350;17.056;2024-01-06T00:57:09;99308.25;;;0.88;83.77
68433;BME280;55412;51.350;17.056;2024-01-06T00:59:35;99312.50;;;0.88;83.41
68433;BME280;55412;51.350;17.056;2024-01-06T01:02:01;99313.34;;;0.87;83.25
68433;BME280;55412;51.350;17.056;2024-01-06T01:04:27;99323.56;;;0.88;83.12
68433;BME280;55412;51.350;17.056;2024-01-06T01:06:52;99314.16;;;0.86;83.14
68433;BME280;55412;51.350;17.056;2024-01-06T01:09:18;99324.50;;;0.90;83.76
68433;BME280;55412;51.350;17.056;2024-01-06T01:11:44;99323.56;;;0.88;83.80
68433;BME280;55412;51.350;17.056;2024-01-06T01:14:09;99320.22;;;0.89;83.57
68433;BME280;55412;51.350;17.056;2024-01-06T01:16:35;99327.03;;;0.89;83.57
68433;BME280;55412;51.350;17.056;2024-01-06T01:19:01;99321.91;;;0.89;83.43
68433;BME280;55412;51.350;17.056;2024-01-06T01:21:28;99315.91;;;0.88;83.53
68433;BME280;55412;51.350;17.056;2024-01-06T01:23:53;99309.06;;;0.86;83.93
68433;BME280;55412;51.350;17.056;2024-01-06T01:26:19;99314.19;;;0.87;83.51
68433;BME280;55412;51.350;17.056;2024-01-06T01:28:45;99305.66;;;0.85;83.90
68433;BME280;55412;51.350;17.056;2024-01-06T01:31:11;99307.38;;;0.88;83.71
68433;BME280;55412;51.350;17.056;2024-01-06T01:33:38;99308.22;;;0.87;83.46
68433;BME280;55412;51.350;17.056;2024-01-06T01:36:03;99310.75;;;0.85;83.51
68433;BME280;55412;51.350;17.056;2024-01-06T01:38:29;99307.34;;;0.85;83.33
68433;BME280;55412;51.350;17.056;2024-01-06T01:40:55;99310.72;;;0.83;83.57
68433;BME280;55412;51.350;17.056;2024-01-06T01:43:21;99309.91;;;0.85;83.82
68433;BME280;55412;51.350;17.056;2024-01-06T01:45:50;99316.69;;;0.84;83.72
68433;BME280;55412;51.350;17.056;2024-01-06T01:48:17;99308.16;;;0.82;83.87
68433;BME280;55412;51.350;17.056;2024-01-06T01:50:44;99313.28;;;0.83;83.79
68433;BME280;55412;51.350;17.056;2024-01-06T01:53:10;99301.28;;;0.79;83.33
68433;BME280;55412;51.350;17.056;2024-01-06T01:55:37;99311.59;;;0.84;83.29
68433;BME280;55412;51.350;17.056;2024-01-06T01:58:04;99312.41;;;0.81;83.85
68433;BME280;55412;51.350;17.056;2024-01-06T02:00:30;99309.88;;;0.83;83.73
68433;BME280;55412;51.350;17.056;2024-01-06T02:02:57;99315.88;;;0.87;83.48
68433;BME280;55412;51.350;17.056;2024-01-06T02:05:24;99318.53;;;0.90;83.86
68433;BME280;55412;51.350;17.056;2024-01-06T02:07:50;99313.44;;;0.91;84.10
68433;BME280;55412;51.350;17.056;2024-01-06T02:10:19;99309.16;;;0.90;83.64
68433;BME280;55412;51.350;17.056;2024-01-06T02:12:45;99308.31;;;0.91;84.07
68433;BME280;55412;51.350;17.056;2024-01-06T02:15:11;99314.28;;;0.92;83.61
68433;BME280;55412;51.350;17.056;2024-01-06T02:17:36;99313.34;;;0.88;83.28
68433;BME280;55412;51.350;17.056;2024-01-06T02:20:06;99314.97;;;0.83;83.64
68433;BME280;55412;51.350;17.056;2024-01-06T02:22:33;99299.69;;;0.85;83.55
68433;BME280;55412;51.350;17.056;2024-01-06T02:24:58;99290.31;;;0.83;83.18
68433;BME280;55412;51.350;17.056;2024-01-06T02:27:24;99289.38;;;0.80;83.84
68433;BME280;55412;51.350;17.056;2024-01-06T02:29:50;99287.53;;;0.73;83.16
68433;BME280;55412;51.350;17.056;2024-01-06T02:32:15;99284.22;;;0.77;83.86
68433;BME280;55412;51.350;17.056;2024-01-06T02:34:41;99272.16;;;0.71;83.66
68433;BME280;55412;51.350;17.056;2024-01-06T02:37:07;99285.94;;;0.78;83.79
68433;BME280;55412;51.350;17.056;2024-01-06T02:39:33;99288.38;;;0.73;83.28
68433;BME280;55412;51.350;17.056;2024-01-06T02:41:58;99295.84;;;0.63;83.01
68433;BME280;55412;51.350;17.056;2024-01-06T02:44:24;99293.31;;;0.64;83.23
68433;BME280;55412;51.350;17.056;2024-01-06T02:46:50;99289.84;;;0.61;83.48
68433;BME280;55412;51.350;17.056;2024-01-06T02:49:15;99285.53;;;0.58;83.84
68433;BME280;55412;51.350;17.056;2024-01-06T02:51:41;99297.41;;;0.56;83.44
68433;BME280;55412;51.350;17.056;2024-01-06T02:54:07;99290.56;;;0.53;83.52
68433;BME280;55412;51.350;17.056;2024-01-06T02:56:32;99295.66;;;0.53;83.88
68433;BME280;55412;51.350;17.056;2024-01-06T02:58:58;99291.38;;;0.52;83.20
68433;BME280;55412;51.350;17.056;2024-01-06T03:01:24;99288.78;;;0.51;83.39
68433;BME280;55412;51.350;17.056;2024-01-06T03:03:49;99286.19;;;0.49;83.64
68433;BME280;55412;51.350;17.056;2024-01-06T03:06:15;99276.69;;;0.42;83.43
68433;BME280;55412;51.350;17.056;2024-01-06T03:08:41;99285.13;;;0.38;83.85
68433;BME280;55412;51.350;17.056;2024-01-06T03:11:06;99287.63;;;0.37;83.30
68433;BME280;55412;51.350;17.056;2024-01-06T03:13:32;99306.47;;;0.42;83.56
68433;BME280;55412;51.350;17.056;2024-01-06T03:16:03;99300.38;;;0.35;83.38
68433;BME280;55412;51.350;17.056;2024-01-06T03:18:29;99303.78;;;0.36;83.26
68433;BME280;55412;51.350;17.056;2024-01-06T03:20:55;99302.06;;;0.35;83.52
68433;BME280;55412;51.350;17.056;2024-01-06T03:23:20;99306.28;;;0.33;83.64
68433;BME280;55412;51.350;17.056;2024-01-06T03:25:46;99302.78;;;0.29;83.66
68433;BME280;55412;51.350;17.056;2024-01-06T03:28:12;99312.97;;;0.29;83.75
68433;BME280;55412;51.350;17.056;2024-01-06T03:30:37;99311.22;;;0.26;83.42
68433;BME280;55412;51.350;17.056;2024-01-06T03:33:03;99316.34;;;0.26;83.53
68433;BME280;55412;51.350;17.056;2024-01-06T03:35:29;99312.81;;;0.21;83.67
68433;BME280;55412;51.350;17.056;2024-01-06T03:37:55;99320.53;;;0.23;83.82
68433;BME280;55412;51.350;17.056;2024-01-06T03:40:20;99323.97;;;0.25;83.60
68433;BME280;55412;51.350;17.056;2024-01-06T03:42:46;99316.31;;;0.25;83.40
68433;BME280;55412;51.350;17.056;2024-01-06T03:45:12;99321.41;;;0.25;83.52
68433;BME280;55412;51.350;17.056;2024-01-06T03:47:38;99323.94;;;0.23;83.78
68433;BME280;55412;51.350;17.056;2024-01-06T03:50:04;99293.88;;;0.10;83.84
68433;BME280;55412;51.350;17.056;2024-01-06T03:52:30;99327.31;;;0.22;83.62
68433;BME280;55412;51.350;17.056;2024-01-06T03:54:55;99334.09;;;0.22;83.46
68433;BME280;55412;51.350;17.056;2024-01-06T03:57:21;99333.22;;;0.21;83.42
68433;BME280;55412;51.350;17.056;2024-01-06T03:59:47;99334.88;;;0.18;83.72
68433;BME280;55412;51.350;17.056;2024-01-06T04:02:12;99344.25;;;0.20;84.03
68433;BME280;55412;51.350;17.056;2024-01-06T04:04:38;99356.19;;;0.21;83.27
68433;BME280;55412;51.350;17.056;2024-01-06T04:07:04;99355.31;;;0.19;83.85
68433;BME280;55412;51.350;17.056;2024-01-06T04:09:30;99354.50;;;0.22;83.61
68433;BME280;55412;51.350;17.056;2024-01-06T04:11:56;99363.84;;;0.21;83.53
68433;BME280;55412;51.350;17.056;2024-01-06T04:14:21;99360.44;;;0.21;83.83
68433;BME280;55412;51.350;17.056;2024-01-06T04:16:47;99363.94;;;0.24;83.76
68433;BME280;55412;51.350;17.056;2024-01-06T04:19:13;99357.06;;;0.22;83.84
68433;BME280;55412;51.350;17.056;2024-01-06T04:21:40;99358.75;;;0.21;83.67
68433;BME280;55412;51.350;17.056;2024-01-06T04:24:06;99355.31;;;0.19;83.78
68433;BME280;55412;51.350;17.056;2024-01-06T04:26:32;99356.13;;;0.18;83.71
68433;BME280;55412;51.350;17.056;2024-01-06T04:28:57;99365.47;;;0.18;83.54
68433;BME280;55412;51.350;17.056;2024-01-06T04:31:23;99368.88;;;0.17;84.02
68433;BME280;55412;51.350;17.056;2024-01-06T04:33:49;99368.88;;;0.17;83.42
68433;BME280;55412;51.350;17.056;2024-01-06T04:36:14;99356.97;;;0.17;83.37
68433;BME280;55412;51.350;17.056;2024-01-06T04:38:40;99341.53;;;0.13;83.50
68433;BME280;55412;51.350;17.056;2024-01-06T04:41:06;99343.34;;;0.17;84.09
68433;BME280;55412;51.350;17.056;2024-01-06T04:43:31;99341.63;;;0.16;83.75
68433;BME280;55412;51.350;17.056;2024-01-06T04:45:57;99338.09;;;0.11;83.97
68433;BME280;55412;51.350;17.056;2024-01-06T04:48:23;99342.50;;;0.16;83.88
68433;BME280;55412;51.350;17.056;2024-01-06T04:50:49;99347.59;;;0.16;83.49
68433;BME280;55412;51.350;17.056;2024-01-06T04:53:15;99347.59;;;0.16;83.59
68433;BME280;55412;51.350;17.056;2024-01-06T04:55:40;99341.56;;;0.14;84.02
68433;BME280;55412;51.350;17.056;2024-01-06T04:58:06;99352.66;;;0.15;83.70
68433;BME280;55412;51.350;17.056;2024-01-06T05:00:32;99347.56;;;0.15;83.30
68433;BME280;55412;51.350;17.056;2024-01-06T05:02:57;99350.03;;;0.12;83.31
68433;BME280;55412;51.350;17.056;2024-01-06T05:05:23;99350.91;;;0.14;83.32
68433;BME280;55412;51.350;17.056;2024-01-06T05:07:49;99360.31;;;0.15;83.63
68433;BME280;55412;51.350;17.056;2024-01-06T05:10:15;99363.66;;;0.14;83.83
68433;BME280;55412;51.350;17.056;2024-01-06T05:12:40;99364.59;;;0.16;83.83
68433;BME280;55412;51.350;17.056;2024-01-06T05:15:06;99366.31;;;0.17;83.50
68433;BME280;55412;51.350;17.056;2024-01-06T05:17:32;99368.03;;;0.18;83.42
68433;BME280;55412;51.350;17.056;2024-01-06T05:19:58;99378.28;;;0.19;83.66
68433;BME280;55412;51.350;17.056;2024-01-06T05:22:23;99370.63;;;0.19;83.38
68433;BME280;55412;51.350;17.056;2024-01-06T05:24:49;99377.38;;;0.17;83.79
68433;BME280;55412;51.350;17.056;2024-01-06T05:27:19;99400.44;;;0.22;83.24
68433;BME280;55412;51.350;17.056;2024-01-06T05:29:45;99401.34;;;0.24;83.75
68433;BME280;55412;51.350;17.056;2024-01-06T05:32:11;99402.13;;;0.21;83.29
68433;BME280;55412;51.350;17.056;2024-01-06T05:34:36;99395.28;;;0.20;83.72
68433;BME280;55412;51.350;17.056;2024-01-06T05:37:02;99386.03;;;0.24;83.75
68433;BME280;55412;51.350;17.056;2024-01-06T05:39:28;99398.84;;;0.27;83.37
68433;BME280;55412;51.350;17.056;2024-01-06T05:41:54;99401.34;;;0.24;83.16
68433;BME280;55412;51.350;17.056;2024-01-06T05:44:19;99416.53;;;0.19;82.95
68433;BME280;55412;51.350;17.056;2024-01-06T05:46:45;99409.72;;;0.18;83.16
68433;BME280;55412;51.350;17.056;2024-01-06T05:49:11;99410.53;;;0.17;83.18
68433;BME280;55412;51.350;17.056;2024-01-06T05:51:37;99410.50;;;0.16;83.71
68433;BME280;55412;51.350;17.056;2024-01-06T05:54:02;99419.88;;;0.15;83.24
68433;BME280;55412;51.350;17.056;2024-01-06T05:56:28;99423.22;;;0.14;83.22
68433;BME280;55412;51.350;17.056;2024-01-06T05:58:55;99422.34;;;0.14;83.74
68433;BME280;55412;51.350;17.056;2024-01-06T06:01:21;99420.56;;;0.10;83.19
68433;BME280;55412;51.350;17.056;2024-01-06T06:03:47;99433.31;;;0.10;83.26
68433;BME280;55412;51.350;17.056;2024-01-06T06:06:13;99435.88;;;0.10;83.27
68433;BME280;55412;51.350;17.056;2024-01-06T06:08:41;99440.13;;;0.09;83.52
68433;BME280;55412;51.350;17.056;2024-01-06T06:11:07;99451.16;;;0.08;83.56
68433;BME280;55412;51.350;17.056;2024-01-06T06:13:40;99449.47;;;0.09;83.31
68433;BME280;55412;51.350;17.056;2024-01-06T06:16:08;99447.78;;;0.09;83.84
68433;BME280;55412;51.350;17.056;2024-01-06T06:18:34;99448.63;;;0.10;83.45
68433;BME280;55412;51.350;17.056;2024-01-06T06:21:00;99447.97;;;0.17;83.62
68433;BME280;55412;51.350;17.056;2024-01-06T06:23:29;99452.22;;;0.18;83.86
68433;BME280;55412;51.350;17.056;2024-01-06T06:25:55;99450.53;;;0.18;83.67
68433;BME280;55412;51.350;17.056;2024-01-06T06:28:21;99459.09;;;0.20;83.17
68433;BME280;55412;51.350;17.056;2024-01-06T06:30:46;99456.44;;;0.16;83.48
68433;BME280;55412;51.350;17.056;2024-01-06T06:33:12;99473.50;;;0.18;83.36
68433;BME280;55412;51.350;17.056;2024-01-06T06:35:38;99473.50;;;0.18;83.18
68433;BME280;55412;51.350;17.056;2024-01-06T06:38:04;99471.00;;;0.21;83.26
68433;BME280;55412;51.350;17.056;2024-01-06T06:40:29;99483.75;;;0.20;82.94
68433;BME280;55412;51.350;17.056;2024-01-06T06:42:55;99481.97;;;0.16;83.00
68433;BME280;55412;51.350;17.056;2024-01-06T06:45:21;99483.66;;;0.15;82.99
68433;BME280;55412;51.350;17.056;2024-01-06T06:47:49;99490.34;;;0.12;83.02
68433;BME280;55412;51.350;17.056;2024-01-06T06:50:18;99487.72;;;0.09;83.29
68433;BME280;55412;51.350;17.056;2024-01-06T06:52:46;99491.88;;;0.05;82.96
68433;BME280;55412;51.350;17.056;2024-01-06T06:55:12;99493.50;;;0.02;83.04
68433;BME280;55412;51.350;17.056;2024-01-06T06:57:38;99481.44;;;-0.04;83.08
68433;BME280;55412;51.350;17.056;2024-01-06T07:00:06;99488.22;;;-0.05;83.59
68433;BME280;55412;51.350;17.056;2024-01-06T07:02:34;99489.88;;;-0.07;83.44
68433;BME280;55412;51.350;17.056;2024-01-06T07:05:00;99499.22;;;-0.07;83.16
68433;BME280;55412;51.350;17.056;2024-01-06T07:07:26;99492.38;;;-0.08;83.21
68433;BME280;55412;51.350;17.056;2024-01-06T07:09:52;99494.97;;;-0.07;83.32
68433;BME280;55412;51.350;17.056;2024-01-06T07:12:17;99494.88;;;-0.10;83.23
68433;BME280;55412;51.350;17.056;2024-01-06T07:14:43;99494.06;;;-0.09;83.30
68433;BME280;55412;51.350;17.056;2024-01-06T07:17:09;99490.63;;;-0.11;83.42
68433;BME280;55412;51.350;17.056;2024-01-06T07:19:36;99498.25;;;-0.11;83.55
68433;BME280;55412;51.350;17.056;2024-01-06T07:22:02;99504.25;;;-0.09;83.03
68433;BME280;55412;51.350;17.056;2024-01-06T07:24:27;99511.06;;;-0.09;83.15
68433;BME280;55412;51.350;17.056;2024-01-06T07:26:53;99509.31;;;-0.10;83.55
68433;BME280;55412;51.350;17.056;2024-01-06T07:29:19;99518.66;;;-0.11;83.44
68433;BME280;55412;51.350;17.056;2024-01-06T07:31:45;99509.25;;;-0.13;83.31
68433;BME280;55412;51.350;17.056;2024-01-06T07:34:10;99522.94;;;-0.10;83.25
68433;BME280;55412;51.350;17.056;2024-01-06T07:36:36;99526.38;;;-0.08;83.26
68433;BME280;55412;51.350;17.056;2024-01-06T07:39:04;99532.38;;;-0.07;83.18
68433;BME280;55412;51.350;17.056;2024-01-06T07:41:31;99536.59;;;-0.08;83.77
68433;BME280;55412;51.350;17.056;2024-01-06T07:43:57;99535.66;;;-0.11;83.01
68433;BME280;55412;51.350;17.056;2024-01-06T07:46:24;99534.88;;;-0.09;83.55
68433;BME280;55412;51.350;17.056;2024-01-06T07:48:49;99544.13;;;-0.12;83.32
68433;BME280;55412;51.350;17.056;2024-01-06T07:51:15;99547.44;;;-0.15;83.50
68433;BME280;55412;51.350;17.056;2024-01-06T07:53:41;99555.16;;;-0.13;83.74
68433;BME280;55412;51.350;17.056;2024-01-06T07:56:07;99548.41;;;-0.11;83.51
68433;BME280;55412;51.350;17.056;2024-01-06T07:58:34;99556.88;;;-0.12;83.57
68433;BME280;55412;51.350;17.056;2024-01-06T08:01:00;99559.47;;;-0.11;84.03
68433;BME280;55412;51.350;17.056;2024-01-06T08:03:25;99566.28;;;-0.10;83.88
68433;BME280;55412;51.350;17.056;2024-01-06T08:05:51;99567.97;;;-0.10;84.21
68433;BME280;55412;51.350;17.056;2024-01-06T08:08:17;99571.41;;;-0.10;83.78
68433;BME280;55412;51.350;17.056;2024-01-06T08:10:44;99572.28;;;-0.08;84.02
68433;BME280;55412;51.350;17.056;2024-01-06T08:13:10;99572.25;;;-0.09;84.29
68433;BME280;55412;51.350;17.056;2024-01-06T08:15:35;99573.91;;;-0.11;84.28
68433;BME280;55412;51.350;17.056;2024-01-06T08:18:01;99581.59;;;-0.10;84.14
68433;BME280;55412;51.350;17.056;2024-01-06T08:20:27;99579.84;;;-0.12;84.27
68433;BME280;55412;51.350;17.056;2024-01-06T08:22:52;99591.81;;;-0.10;84.16
68433;BME280;55412;51.350;17.056;2024-01-06T08:25:18;99594.34;;;-0.10;83.97
68433;BME280;55412;51.350;17.056;2024-01-06T08:27:44;99599.41;;;-0.11;84.23
68433;BME280;55412;51.350;17.056;2024-01-06T08:30:10;99601.13;;;-0.10;84.45
68433;BME280;55412;51.350;17.056;2024-01-06T08:32:36;99605.34;;;-0.12;84.54
68433;BME280;55412;51.350;17.056;2024-01-06T08:35:02;99607.03;;;-0.13;84.48
68433;BME280;55412;51.350;17.056;2024-01-06T08:37:29;99613.81;;;-0.13;84.68
68433;BME280;55412;51.350;17.056;2024-01-06T08:39:55;99622.34;;;-0.13;84.61
68433;BME280;55412;51.350;17.056;2024-01-06T08:42:21;99620.66;;;-0.12;84.71
68433;BME280;55412;51.350;17.056;2024-01-06T08:44:47;99624.06;;;-0.12;84.71
68433;BME280;55412;51.350;17.056;2024-01-06T08:47:13;99624.06;;;-0.12;85.05
68433;BME280;55412;51.350;17.056;2024-01-06T08:49:38;99618.06;;;-0.14;85.06
68433;BME280;55412;51.350;17.056;2024-01-06T08:52:04;99618.84;;;-0.15;84.83
68433;BME280;55412;51.350;17.056;2024-01-06T08:54:31;99634.28;;;-0.10;84.77
68433;BME280;55412;51.350;17.056;2024-01-06T08:56:57;99634.25;;;-0.12;84.75
68433;BME280;55412;51.350;17.056;2024-01-06T08:59:23;99636.84;;;-0.10;85.00
68433;BME280;55412;51.350;17.056;2024-01-06T09:01:48;99637.59;;;-0.14;85.09
68433;BME280;55412;51.350;17.056;2024-01-06T09:04:14;99641.09;;;-0.11;84.79
68433;BME280;55412;51.350;17.056;2024-01-06T09:06:40;99636.81;;;-0.12;84.86
68433;BME280;55412;51.350;17.056;2024-01-06T09:09:07;99642.81;;;-0.10;84.90
68433;BME280;55412;51.350;17.056;2024-01-06T09:11:34;99645.38;;;-0.10;85.09
68433;BME280;55412;51.350;17.056;2024-01-06T09:14:00;99651.28;;;-0.11;85.00
68433;BME280;55412;51.350;17.056;2024-01-06T09:16:26;99649.59;;;-0.10;85.12
68433;BME280;55412;51.350;17.056;2024-01-06T09:18:52;99642.75;;;-0.13;85.35
68433;BME280;55412;51.350;17.056;2024-01-06T09:21:18;99661.56;;;-0.08;85.24
68433;BME280;55412;51.350;17.056;2024-01-06T09:23:43;99664.81;;;-0.13;85.51
68433;BME280;55412;51.350;17.056;2024-01-06T09:26:09;99662.31;;;-0.12;85.46
68433;BME280;55412;51.350;17.056;2024-01-06T09:28:35;99663.09;;;-0.14;85.37
68433;BME280;55412;51.350;17.056;2024-01-06T09:31:01;99659.81;;;-0.10;85.61
68433;BME280;55412;51.350;17.056;2024-01-06T09:33:26;99669.13;;;-0.11;85.51
68433;BME280;55412;51.350;17.056;2024-01-06T09:35:52;99665.53;;;-0.17;85.84
68433;BME280;55412;51.350;17.056;2024-01-06T09:38:19;99686.09;;;-0.13;85.72
68433;BME280;55412;51.350;17.056;2024-01-06T09:40:45;99673.31;;;-0.14;85.99
68433;BME280;55412;51.350;17.056;2024-01-06T09:43:11;99685.16;;;-0.15;86.13
68433;BME280;55412;51.350;17.056;2024-01-06T09:45:38;99679.19;;;-0.15;86.00
68433;BME280;55412;51.350;17.056;2024-01-06T09:48:13;99680.22;;;-0.10;86.13
68433;BME280;55412;51.350;17.056;2024-01-06T09:50:43;99684.44;;;-0.11;85.91
68433;BME280;55412;51.350;17.056;2024-01-06T09:53:13;99683.53;;;-0.13;86.24
68433;BME280;55412;51.350;17.056;2024-01-06T09:55:39;99677.56;;;-0.13;85.84
68433;BME280;55412;51.350;17.056;2024-01-06T09:58:05;99689.50;;;-0.12;86.12
68433;BME280;55412;51.350;17.056;2024-01-06T10:00:35;99688.53;;;-0.16;86.14
68433;BME280;55412;51.350;17.056;2024-01-06T10:03:01;99682.78;;;-0.09;85.98
68433;BME280;55412;51.350;17.056;2024-01-06T10:05:27;99685.34;;;-0.09;86.32
68433;BME280;55412;51.350;17.056;2024-01-06T10:07:52;99683.66;;;-0.08;86.20
68433;BME280;55412;51.350;17.056;2024-01-06T10:10:19;99691.31;;;-0.08;85.87
68433;BME280;55412;51.350;17.056;2024-01-06T10:12:46;99681.06;;;-0.10;86.21
68433;BME280;55412;51.350;17.056;2024-01-06T10:15:12;99685.28;;;-0.12;86.37
68433;BME280;55412;51.350;17.056;2024-01-06T10:17:39;99686.09;;;-0.13;86.48
68433;BME280;55412;51.350;17.056;2024-01-06T10:20:09;99690.25;;;-0.15;86.25
68433;BME280;55412;51.350;17.056;2024-01-06T10:22:36;99697.91;;;-0.15;86.10
68433;BME280;55412;51.350;17.056;2024-01-06T10:25:06;99690.38;;;-0.12;86.44
68433;BME280;55412;51.350;17.056;2024-01-06T10:30:55;99690.34;;;-0.13;86.37
68433;BME280;55412;51.350;17.056;2024-01-06T10:33:22;99698.84;;;-0.13;86.18
68433;BME280;55412;51.350;17.056;2024-01-06T10:35:54;99693.78;;;-0.11;86.49
68433;BME280;55412;51.350;17.056;2024-01-06T10:38:21;99672.47;;;-0.13;86.38
68433;BME280;55412;51.350;17.056;2024-01-06T10:43:26;99676.81;;;-0.09;86.29
68433;BME280;55412;51.350;17.056;2024-01-06T10:45:56;99669.19;;;-0.09;86.40
68433;BME280;55412;51.350;17.056;2024-01-06T10:48:25;99680.34;;;-0.06;86.51
68433;BME280;55412;51.350;17.056;2024-01-06T10:50:53;99678.53;;;-0.10;86.30
68433;BME280;55412;51.350;17.056;2024-01-06T10:53:20;99686.34;;;-0.04;86.24
68433;BME280;55412;51.350;17.056;2024-01-06T10:55:49;99682.13;;;-0.03;86.22
68433;BME280;55412;51.350;17.056;2024-01-06T10:58:17;99676.22;;;-0.01;86.63
68433;BME280;55412;51.350;17.056;2024-01-06T11:00:45;99685.53;;;-0.03;86.17
68433;BME280;55412;51.350;17.056;2024-01-06T11:03:10;99676.13;;;-0.05;85.95
68433;BME280;55412;51.350;17.056;2024-01-06T11:05:38;99681.25;;;-0.04;86.39
68433;BME280;55412;51.350;17.056;2024-01-06T11:08:06;99679.53;;;-0.05;86.11
68433;BME280;55412;51.350;17.056;2024-01-06T11:10:32;99665.06;;;-0.06;86.09
68433;BME280;55412;51.350;17.056;2024-01-06T11:13:08;99674.56;;;0.00;86.12
68433;BME280;55412;51.350;17.056;2024-01-06T11:15:41;99677.91;;;-0.01;85.86
68433;BME280;55412;51.350;17.056;2024-01-06T11:18:07;99684.81;;;0.02;85.98
68433;BME280;55412;51.350;17.056;2024-01-06T11:20:33;99683.84;;;-0.02;86.20
68433;BME280;55412;51.350;17.056;2024-01-06T11:23:18;99688.94;;;-0.02;86.22
68433;BME280;55412;51.350;17.056;2024-01-06T11:25:47;99693.97;;;-0.05;86.09
68433;BME280;55412;51.350;17.056;2024-01-06T11:28:13;99697.28;;;-0.08;85.96
68433;BME280;55412;51.350;17.056;2024-01-06T11:30:41;99680.25;;;-0.09;85.69
68433;BME280;55412;51.350;17.056;2024-01-06T11:33:08;99686.97;;;-0.12;85.87
68433;BME280;55412;51.350;17.056;2024-01-06T11:35:37;99686.13;;;-0.11;86.07
68433;BME280;55412;51.350;17.056;2024-01-06T11:38:06;99689.47;;;-0.14;85.93
68433;BME280;55412;51.350;17.056;2024-01-06T11:40:36;99690.22;;;-0.16;85.97
68433;BME280;55412;51.350;17.056;2024-01-06T11:43:11;99693.72;;;-0.14;85.78
68433;BME280;55412;51.350;17.056;2024-01-06T11:45:40;99687.63;;;-0.18;85.73
68433;BME280;55412;51.350;17.056;2024-01-06T11:48:08;99689.41;;;-0.15;86.08
68433;BME280;55412;51.350;17.056;2024-01-06T11:50:35;99692.78;;;-0.16;85.65
68433;BME280;55412;51.350;17.056;2024-01-06T11:53:03;99701.28;;;-0.16;85.62
68433;BME280;55412;51.350;17.056;2024-01-06T11:55:29;99691.00;;;-0.19;85.93
68433;BME280;55412;51.350;17.056;2024-01-06T11:58:03;99683.44;;;-0.16;85.94
68433;BME280;55412;51.350;17.056;2024-01-06T12:00:40;99690.19;;;-0.18;86.13
68433;BME280;55412;51.350;17.056;2024-01-06T12:03:06;99693.50;;;-0.20;85.61
68433;BME280;55412;51.350;17.056;2024-01-06T12:05:32;99699.44;;;-0.21;85.88
68433;BME280;55412;51.350;17.056;2024-01-06T12:08:02;99701.88;;;-0.24;85.68
68433;BME280;55412;51.350;17.056;2024-01-06T12:10:30;99704.38;;;-0.26;85.37
68433;BME280;55412;51.350;17.056;2024-01-06T12:13:11;99703.41;;;-0.30;85.64
68433;BME280;55412;51.350;17.056;2024-01-06T12:15:37;99702.56;;;-0.30;85.35
68433;BME280;55412;51.350;17.056;2024-01-06T12:18:06;99699.78;;;-0.38;85.31
68433;BME280;55412;51.350;17.056;2024-01-06T12:20:32;99704.97;;;-0.35;85.37
68433;BME280;55412;51.350;17.056;2024-01-06T12:23:03;99714.34;;;-0.34;85.60
68433;BME280;55412;51.350;17.056;2024-01-06T12:25:31;99703.91;;;-0.41;85.36
68433;BME280;55412;51.350;17.056;2024-01-06T12:28:02;99713.38;;;-0.37;85.44
68433;BME280;55412;51.350;17.056;2024-01-06T12:30:27;99720.16;;;-0.38;85.45
68433;BME280;55412;51.350;17.056;2024-01-06T12:32:55;99725.34;;;-0.36;85.57
68433;BME280;55412;51.350;17.056;2024-01-06T12:35:21;99716.63;;;-0.43;85.18
68433;BME280;55412;51.350;17.056;2024-01-06T12:37:48;99730.34;;;-0.38;85.31
68433;BME280;55412;51.350;17.056;2024-01-06T12:40:18;99717.56;;;-0.39;85.27
68433;BME280;55412;51.350;17.056;2024-01-06T12:42:45;99721.00;;;-0.39;85.05
68433;BME280;55412;51.350;17.056;2024-01-06T12:45:11;99721.81;;;-0.40;85.30
68433;BME280;55412;51.350;17.056;2024-01-06T12:47:38;99729.50;;;-0.38;85.10
68433;BME280;55412;51.350;17.056;2024-01-06T12:50:05;99714.94;;;-0.42;84.98
68433;BME280;55412;51.350;17.056;2024-01-06T12:52:31;99724.47;;;-0.37;85.20
68433;BME280;55412;51.350;17.056;2024-01-06T12:54:59;99729.59;;;-0.35;85.10
68433;BME280;55412;51.350;17.056;2024-01-06T12:57:24;99733.84;;;-0.36;85.29